Weather observations for the past three days for
Los Angeles, Los Angeles International Airport
Metric (Imperial)
Date Time (pdt) Wind (kph) Vis. (km) Weather Sky Cond. Temperature (ºC) Relative Humidity Wind Chill (°C) Heat Index (°C) Pressure Precipitation (cm)
Air Dwpt 6 hour altimeter (cm) sea level (mb) 1 hr 3 hr 6 hr
Max. Min.
10 10:53 W 15 11.27 A Few Clouds FEW010 FEW015 20.6 13.9 21.1 16.1 66% 76.05 1013.7
10 09:53 Calm 12.87 Partly Cloudy SCT014 18.9 13.3 70% 76.02 1013.5
10 08:53 Calm 11.27 Overcast OVC013 17.2 13.3 78% 76.02 1013.3
10 07:53 Calm 9.66 Overcast with Haze OVC011 16.7 13.9 84% 76.02 1013.3
10 06:53 Calm 8.05 Overcast with Haze OVC011 16.1 13.3 84% 75.97 1012.8
10 05:53 E 6 9.66 Fog/Mist OVC010 16.1 13.9 87% 75.97 1012.5
10 04:53 E 9 9.66 Fog/Mist OVC010 16.1 13.9 16.7 14.4 87% 75.97 1012.6
10 03:53 E 6 8.05 Fog/Mist OVC009 16.1 13.9 87% 75.95 1012.4
10 02:53 Calm 8.05 Fog/Mist OVC007 15.6 13.9 90% 75.97 1012.6
10 01:53 SE 9 8.05 Fog/Mist OVC006 15.6 13.9 90% 75.97 1012.7
10 00:53 Calm 6.44 Fog/Mist OVC005 15 13.9 93% 76 1013.0
09 23:53 Vrbl 6 9.66 Fog/Mist OVC005 15 13.9 93% 76 1013.1
09 22:53 SW 7 6.44 Fog/Mist OVC004 14.4 13.3 18.3 13.9 93% 76.02 1013.2
09 21:53 W 11 1.61 Fog/Mist OVC002 14.4 13.3 93% 76.02 1013.3
09 20:53 W 15 3.22 Fog/Mist OVC004 15 13.9 93% 76 1012.9
09 19:53 W 15 11.27 Overcast OVC005 15 13.9 93% 75.95 1012.2
09 18:53 W 17 11.27 Overcast OVC007 16.1 13.9 87% 75.9 1011.7
09 17:53 W 20 12.87 Overcast SCT008 OVC010 17.2 14.4 84% 75.9 1011.7
09 16:53 W 20 12.87 Mostly Cloudy BKN010 18.3 14.4 20.6 18.3 78% 75.9 1011.8
09 15:53 SW 20 16.09 Partly Cloudy FEW009 SCT012 20 14.4 70% 75.9 1011.7
09 14:53 W 22 G 33 11.27 Partly Cloudy FEW008 SCT012 20 13.9 68% 75.97 1012.5
09 13:53 W 20 14.48 Partly Cloudy FEW008 SCT011 20.6 13.9 66% 76 1013.0
09 12:53 W 19 14.48 A Few Clouds FEW010 20.6 14.4 68% 76.02 1013.2
09 11:53 W 17 14.48 Partly Cloudy FEW010 SCT018 19.4 14.4 73% 76.05 1013.9
09 10:53 W 13 11.27 Mostly Cloudy FEW010 BKN016 18.9 14.4 18.9 16.1 75% 76.07 1014.1
09 09:53 Calm 9.66 Overcast with Haze OVC014 17.8 13.9 78% 76.05 1013.7
09 08:53 Vrbl 6 8.05 Overcast with Haze OVC012 17.2 13.9 81% 76.05 1013.8
09 07:53 SE 7 8.05 Overcast with Haze OVC011 16.7 13.9 84% 76.05 1013.8
09 06:53 SE 7 8.05 Fog/Mist OVC009 16.1 13.9 87% 76.05 1013.5
09 05:53 SE 7 8.05 Fog/Mist OVC009 16.1 13.9 87% 76 1013.1
09 04:53 Calm 9.66 Fog/Mist OVC010 16.1 13.9 16.7 15 87% 76 1013.1
09 03:53 Calm 9.66 Fog/Mist OVC011 16.7 13.9 84% 76 1013.0
09 02:53 N 6 9.66 Fog/Mist OVC010 16.1 13.3 84% 76.02 1013.3
09 01:53 Calm 9.66 Fog/Mist OVC010 16.1 13.9 87% 76.05 1013.7
09 00:53 E 9 9.66 Fog/Mist OVC009 15.6 13.9 90% 76.07 1014.2
08 23:53 Calm 14.48 Overcast OVC009 15.6 13.3 86% 76.1 1014.4
08 22:53 SW 7 14.48 Overcast OVC009 15.6 13.3 18.3 15 86% 76.12 1014.6
08 21:53 W 6 16.09 Overcast OVC007 15 13.3 90% 76.1 1014.5
08 20:53 W 13 14.48 Overcast OVC007 15 13.3 90% 76.1 1014.2
08 19:53 W 15 16.09 Overcast SCT008 OVC010 15.6 13.3 86% 76.05 1013.7
08 18:53 W 20 16.09 Overcast OVC010 16.7 13.9 84% 76.02 1013.4
08 17:53 W 15 16.09 Overcast OVC010 17.2 13.9 81% 76.02 1013.3
08 16:53 W 19 16.09 Mostly Cloudy BKN012 17.8 13.9 20.6 17.8 78% 76.02 1013.4
08 15:53 W 22 16.09 Partly Cloudy SCT013 19.4 13.9 71% 76.05 1013.8
08 14:53 W 19 G 33 14.48 A Few Clouds FEW011 FEW023 20.6 13.9 66% 76.1 1014.5
08 13:53 W 19 16.09 A Few Clouds FEW010 FEW022 20 13.9 68% 76.15 1015.2
08 12:53 W 15 16.09 Partly Cloudy SCT020 20 13.9 68% 76.2 1015.7
08 11:53 W 15 14.48 Overcast OVC018 18.3 13.9 76% 76.23 1016.2
08 10:53 W 13 14.48 Overcast OVC017 18.3 14.4 18.3 16.1 78% 76.25 1016.4
08 09:53 E 6 14.48 Overcast OVC014 17.8 13.9 78% 76.25 1016.4
08 08:53 Calm 14.48 Overcast OVC013 17.2 13.9 81% 76.25 1016.3
08 07:53 Vrbl 6 11.27 Overcast OVC012 16.7 13.9 84% 76.25 1016.3
08 06:53 E 7 12.87 Overcast OVC011 16.7 13.9 84% 76.23 1016.1
08 05:53 E 11 12.87 Overcast FEW008 OVC012 16.1 13.3 84% 76.2 1015.8
08 04:53 SE 6 14.48 Overcast FEW008 OVC011 16.1 13.3 16.7 15.6 84% 76.17 1015.4
08 03:53 SE 15 14.48 Overcast FEW008 OVC012 16.7 13.3 80% 76.17 1015.2
08 02:53 Calm 16.09 Mostly Cloudy FEW008 BKN011 16.7 13.9 84% 76.17 1015.2
08 01:53 SW 7 16.09 Mostly Cloudy FEW008 BKN010 16.1 13.9 87% 76.2 1015.7
08 00:53 SW 9 16.09 Partly Cloudy FEW007 SCT010 15.6 13.9 90% 76.23 1016.1
07 23:53 S 6 16.09 Partly Cloudy FEW007 SCT010 15.6 13.9 90% 76.23 1016.0
07 22:53 S 7 16.09 Partly Cloudy FEW006 SCT010 16.1 13.9 18.9 15.6 87% 76.2 1015.9
07 21:53 S 9 16.09 Mostly Cloudy FEW005 BKN009 16.7 14.4 86% 76.2 1015.7
07 20:53 W 7 16.09 Partly Cloudy FEW005 SCT008 15.6 13.9 90% 76.15 1015.1
07 19:53 W 17 16.09 Partly Cloudy SCT009 16.1 13.3 84% 76.1 1014.4
07 18:53 SW 17 16.09 Partly Cloudy SCT009 17.2 13.3 78% 76.07 1013.9
07 17:53 SW 20 16.09 A Few Clouds FEW008 FEW110 18.3 13.3 73% 76.07 1013.9
07 16:53 SW 19 16.09 Partly Cloudy FEW009 SCT110 18.9 13.9 20 18.3 73% 76.07 1014.0
07 15:53 W 24 16.09 Partly Cloudy SCT009 SCT110 19.4 14.4 73% 76.07 1014.3
07 14:53 W 24 16.09 A Few Clouds FEW010 FEW110 20 13.3 65% 76.12 1014.8
07 13:53 W 22 16.09 A Few Clouds FEW010 19.4 13.3 68% 76.17 1015.3
07 12:53 W 20 16.09 A Few Clouds FEW010 20 13.3 65% 76.2 1015.8
07 11:53 W 19 16.09 A Few Clouds FEW010 20 13.9 68% 76.23 1016.2
Date Time (pdt) Wind (kph) Vis. (km) Weather Sky Cond. Air Dwpt Max. Min. Relative Humidity Wind Chill (°C) Heat Index (°C) altimeter (cm) sea level (mb) 1 hr 3 hr 6 hr
6 hour
Temperature (ºC) Pressure Precipitation (cm)